Time;durP1;ratioP1;P1;durP2;ratioP2;P2;SDS_P1;SDS_P2;PMS_P1;PMS_P2;Temp;Humidity;BMP_temperature;BMP_pressure;BME280_temperature;BME280_humidity;BME280_pressure;Samples;Min_cycle;Max_cycle;Signal;HPM_P1;HPM_P2
2023/06/23 00:02:00;;;;;;;34.92;25.90;;;16.80;99.90;;;;;;21155160;28;20516;-51
2023/06/23 00:12:02;;;;;;;36.13;22.55;;;16.80;99.90;;;;;;21155301;28;20443;-54
2023/06/23 00:22:03;;;;;;;19.02;15.52;;;16.70;99.90;;;;;;21155108;28;20039;-48
2023/06/23 00:32:05;;;;;;;24.42;15.85;;;16.60;99.90;;;;;;21153949;28;20510;-47
2023/06/23 00:42:09;;;;;;;22.77;16.02;;;16.50;99.90;;;;;;21152483;28;20035;-48
2023/06/23 00:52:10;;;;;;;23.13;15.48;;;16.40;99.90;;;;;;21152421;28;20100;-51
2023/06/23 01:02:12;;;;;;;21.77;14.55;;;16.40;99.90;;;;;;21132724;28;20047;-53
2023/06/23 01:12:31;;;;;;;19.92;14.75;;;16.40;99.90;;;;;;21131720;28;20028;-48
2023/06/23 01:22:45;;;;;;;26.08;15.60;;;16.40;99.90;;;;;;21150194;28;20387;-49
2023/06/23 01:32:55;;;;;;;21.48;15.32;;;16.50;99.90;;;;;;21128588;28;20027;-44
2023/06/23 01:42:59;;;;;;;21.45;15.52;;;16.60;99.90;;;;;;21107256;28;20481;-47
2023/06/23 01:53:03;;;;;;;23.30;16.73;;;16.60;99.90;;;;;;21064122;28;20447;-45
2023/06/23 02:03:06;;;;;;;20.23;14.15;;;16.90;99.90;;;;;;21059779;28;20036;-51
2023/06/23 02:13:11;;;;;;;24.83;15.15;;;17.10;99.90;;;;;;21063492;28;20602;-47
2023/06/23 02:23:15;;;;;;;20.52;15.60;;;17.40;99.90;;;;;;21066804;28;20101;-47
2023/06/23 02:33:16;;;;;;;24.17;15.65;;;17.60;99.90;;;;;;21079244;28;20040;-49
2023/06/23 02:43:29;;;;;;;25.65;16.55;;;17.90;99.90;;;;;;21120345;28;20040;-47
2023/06/23 02:53:35;;;;;;;17.35;14.68;;;18.10;99.90;;;;;;21158170;28;20061;-51
2023/06/23 03:03:39;;;;;;;17.77;14.23;;;18.10;99.90;;;;;;21159416;28;20473;-53
2023/06/23 03:13:41;;;;;;;18.10;13.52;;;18.20;99.90;;;;;;21141945;28;20040;-49
2023/06/23 03:23:49;;;;;;;18.58;12.73;;;18.10;99.90;;;;;;21159179;28;20028;-46
2023/06/23 03:33:54;;;;;;;17.97;12.87;;;18.20;99.90;;;;;;21158398;28;20035;-50
2023/06/23 03:43:59;;;;;;;19.23;13.25;;;18.20;99.90;;;;;;21135463;28;20039;-48
2023/06/23 03:54:02;;;;;;;18.02;13.52;;;18.00;99.90;;;;;;21157030;28;20040;-53
2023/06/23 04:04:06;;;;;;;22.40;13.10;;;17.70;99.90;;;;;;21155886;28;20088;-50
2023/06/23 04:14:12;;;;;;;15.80;12.18;;;17.60;99.90;;;;;;21155945;28;20384;-49
2023/06/23 04:24:15;;;;;;;18.08;11.40;;;17.70;99.90;;;;;;21156209;28;20061;-48
2023/06/23 04:34:17;;;;;;;23.00;14.32;;;17.90;99.90;;;;;;21152958;28;20031;-44
2023/06/23 04:44:21;;;;;;;18.92;14.05;;;18.30;99.90;;;;;;21152212;28;20485;-51
2023/06/23 04:54:34;;;;;;;18.45;13.32;;;18.30;99.90;;;;;;21152096;28;20454;-49
2023/06/23 05:04:37;;;;;;;16.27;11.77;;;18.40;99.90;;;;;;21150609;28;20036;-54
2023/06/23 05:14:40;;;;;;;22.63;13.65;;;18.40;99.90;;;;;;21150246;28;20031;-47
2023/06/23 05:24:46;;;;;;;19.38;13.90;;;18.30;99.90;;;;;;21149664;28;20038;-47
2023/06/23 05:34:50;;;;;;;17.10;13.18;;;18.00;99.90;;;;;;21148154;28;20556;-48
2023/06/23 05:44:51;;;;;;;17.75;12.98;;;18.00;99.90;;;;;;21143744;28;20035;-49
2023/06/23 05:54:56;;;;;;;16.13;13.35;;;18.10;99.90;;;;;;21146622;28;20080;-47
2023/06/23 06:05:00;;;;;;;19.80;11.70;;;18.40;99.90;;;;;;21145895;28;20096;-49
2023/06/23 06:15:04;;;;;;;13.43;8.50;;;18.80;99.90;;;;;;21130712;28;20163;-49
2023/06/23 06:25:09;;;;;;;12.38;7.80;;;22.00;99.90;;;;;;21146026;28;20032;-52
2023/06/23 06:35:12;;;;;;;10.68;7.95;;;26.20;99.90;;;;;;21145113;28;20040;-54
2023/06/23 06:45:14;;;;;;;11.60;8.40;;;29.40;98.40;;;;;;21142726;28;20389;-55
2023/06/23 06:55:18;;;;;;;10.40;8.98;;;30.90;94.50;;;;;;21144962;28;20407;-54
2023/06/23 07:05:20;;;;;;;16.85;10.38;;;31.80;93.20;;;;;;21143808;28;20040;-56
2023/06/23 07:15:22;;;;;;;13.40;11.30;;;32.10;91.60;;;;;;21158572;28;20043;-55
2023/06/23 07:25:23;;;;;;;10.75;9.10;;;31.40;90.50;;;;;;21158670;28;20074;-50
2023/06/23 07:35:25;;;;;;;13.68;9.27;;;31.20;91.80;;;;;;21154742;28;20055;-56
2023/06/23 07:45:26;;;;;;;29.45;14.82;;;31.30;91.90;;;;;;21156644;28;20435;-54
2023/06/23 07:55:28;;;;;;;21.83;12.77;;;30.40;95.10;;;;;;21156797;28;20036;-49
2023/06/23 08:05:29;;;;;;;15.75;6.93;;;25.60;99.90;;;;;;21155512;28;20032;-46
2023/06/23 08:15:31;;;;;;;21.30;12.27;;;;;;;;;;21154949;28;20028;-50
2023/06/23 08:25:33;;;;;;;28.05;13.98;;;17.60;99.90;;;;;;21154291;28;20043;-47
2023/06/23 08:35:34;;;;;;;21.85;13.52;;;17.10;99.90;;;;;;21153926;28;20036;-46
2023/06/23 08:45:49;;;;;;;24.40;16.70;;;16.90;99.90;;;;;;21152249;28;20032;-52
2023/06/23 08:55:53;;;;;;;30.90;22.70;;;16.70;99.90;;;;;;21151577;28;20027;-48
2023/06/23 09:05:54;;;;;;;37.67;28.15;;;16.80;99.90;;;;;;21151547;28;20440;-48
2023/06/23 09:15:56;;;;;;;55.90;39.05;;;17.30;99.90;;;;;;21150082;28;20051;-54
2023/06/23 09:25:59;;;;;;;55.55;38.15;;;17.40;99.90;;;;;;21148536;28;20035;-49
2023/06/23 09:36:04;;;;;;;38.00;29.95;;;17.60;99.90;;;;;;21148341;28;20088;-48
2023/06/23 09:46:07;;;;;;;35.78;29.40;;;17.90;99.90;;;;;;21147834;28;20048;-54
2023/06/23 09:56:16;;;;;;;38.20;27.70;;;18.30;99.90;;;;;;21146961;28;20040;-44
2023/06/23 10:06:34;;;;;;;33.55;24.83;;;18.60;99.90;;;;;;21146621;28;20038;-48
2023/06/23 10:16:40;;;;;;;18.73;13.10;;;18.60;99.90;;;;;;21144681;28;20027;-46
2023/06/23 10:26:45;;;;;;;16.42;9.55;;;18.50;99.90;;;;;;21145354;28;20032;-50
2023/06/23 10:36:51;;;;;;;7.38;5.47;;;18.60;99.90;;;;;;21141100;28;20129;-54
2023/06/23 10:46:53;;;;;;;5.10;2.95;;;19.00;99.90;;;;;;21154380;28;20396;-48
2023/06/23 10:56:55;;;;;;;4.95;1.98;;;19.50;99.90;;;;;;21161605;28;20653;-49
2023/06/23 11:07:12;;;;;;;6.15;1.80;;;20.10;99.90;;;;;;21160701;28;20474;-48
2023/06/23 11:17:14;;;;;;;3.22;1.20;;;20.70;99.90;;;;;;21158124;28;20032;-52
2023/06/23 11:27:16;;;;;;;3.88;1.13;;;21.40;99.90;;;;;;21140950;28;20083;-48
2023/06/23 11:37:20;;;;;;;1.50;1.00;;;22.10;98.90;;;;;;21158204;28;20032;-52
2023/06/23 11:47:26;;;;;;;4.85;3.15;;;22.50;96.30;;;;;;21156971;28;20061;-50
2023/06/23 11:57:28;;;;;;;3.85;1.00;;;23.30;96.80;;;;;;21155134;28;20077;-49
2023/06/23 12:07:31;;;;;;;1.50;0.95;;;23.90;94.10;;;;;;21156443;28;20028;-55
2023/06/23 12:17:41;;;;;;;4.43;1.23;;;23.60;92.90;;;;;;21155378;28;20449;-50
2023/06/23 12:27:50;;;;;;;2.35;0.82;;;23.40;93.50;;;;;;21135533;28;20386;-49
2023/06/23 12:37:52;;;;;;;2.80;1.30;;;23.50;92.30;;;;;;21153163;28;20032;-49
2023/06/23 12:47:54;;;;;;;1.85;1.20;;;24.00;91.20;;;;;;21132766;28;20044;-55
2023/06/23 12:57:56;;;;;;;1.92;1.00;;;24.10;91.10;;;;;;21151865;28;20538;-49
2023/06/23 13:07:58;;;;;;;1.73;1.00;;;23.70;90.70;;;;;;21151626;28;20035;-50
2023/06/23 13:18:00;;;;;;;2.97;1.13;;;22.60;92.40;;;;;;21150801;28;20036;-48
2023/06/23 13:28:02;;;;;;;2.22;1.50;;;22.40;93.90;;;;;;21149850;28;20077;-50
2023/06/23 13:38:03;;;;;;;2.28;1.40;;;22.10;93.60;;;;;;21149295;28;20528;-48
2023/06/23 13:48:05;;;;;;;3.42;1.25;;;22.00;94.40;;;;;;21148425;28;20052;-50
2023/06/23 13:58:07;;;;;;;3.22;1.17;;;22.40;94.30;;;;;;21129509;28;20039;-54
2023/06/23 14:08:08;;;;;;;1.92;1.10;;;23.00;94.70;;;;;;21147846;28;20034;-49
2023/06/23 14:18:11;;;;;;;1.88;1.13;;;23.50;94.20;;;;;;21147184;28;20067;-57
2023/06/23 14:28:13;;;;;;;2.10;1.20;;;24.40;91.30;;;;;;21127814;28;20081;-55
2023/06/23 14:38:14;;;;;;;4.53;1.25;;;26.80;90.50;;;;;;21146121;28;20549;-56
2023/06/23 14:48:17;;;;;;;4.15;1.65;;;27.20;84.10;;;;;;21146473;28;20035;-52
2023/06/23 14:58:19;;;;;;;2.20;1.75;;;26.80;82.30;;;;;;21145976;28;20530;-53
2023/06/23 15:08:21;;;;;;;4.38;1.63;;;26.00;82.70;;;;;;21146080;28;20035;-46
2023/06/23 15:18:23;;;;;;;1.70;1.60;;;26.50;82.30;;;;;;21126594;28;20508;-47
2023/06/23 15:28:31;;;;;;;4.30;1.60;;;26.60;81.00;;;;;;21145676;28;20550;-56
2023/06/23 15:38:32;;;;;;;2.88;1.83;;;27.00;80.20;;;;;;21151992;28;20048;-58
2023/06/23 15:48:34;;;;;;;6.78;2.08;;;26.70;79.80;;;;;;21159338;28;20084;-52
2023/06/23 15:58:36;;;;;;;3.15;2.28;;;26.60;77.50;;;;;;21158596;28;20155;-54
2023/06/23 16:08:38;;;;;;;3.10;2.30;;;25.50;78.00;;;;;;21155525;28;20471;-51
2023/06/23 16:18:40;;;;;;;4.80;3.90;;;23.30;84.70;;;;;;21158028;28;20032;-54
2023/06/23 16:28:42;;;;;;;5.85;2.78;;;22.40;86.60;;;;;;21137812;28;20035;-50
2023/06/23 16:38:43;;;;;;;4.78;3.17;;;22.00;87.10;;;;;;21152853;28;20047;-54
2023/06/23 16:48:45;;;;;;;6.70;4.18;;;21.60;85.80;;;;;;21154478;28;20036;-46
2023/06/23 16:58:46;;;;;;;5.38;4.30;;;20.90;87.80;;;;;;21154025;28;20132;-50
2023/06/23 17:08:48;;;;;;;6.82;5.35;;;20.20;87.60;;;;;;21153785;28;20335;-54
2023/06/23 17:18:50;;;;;;;5.30;4.28;;;19.70;90.70;;;;;;21152313;28;20035;-45
2023/06/23 17:28:51;;;;;;;5.63;4.03;;;19.40;88.30;;;;;;21151403;28;20040;-52
2023/06/23 17:38:53;;;;;;;6.57;4.40;;;19.30;88.10;;;;;;21119588;28;20393;-50
2023/06/23 17:48:55;;;;;;;6.65;4.70;;;19.10;89.40;;;;;;21149816;28;20092;-50
2023/06/23 17:58:56;;;;;;;6.40;4.88;;;18.60;92.00;;;;;;21149123;28;20536;-54
2023/06/23 18:08:58;;;;;;;9.18;6.95;;;18.40;90.10;;;;;;21149066;28;20042;-51
2023/06/23 18:18:59;;;;;;;8.35;5.50;;;18.30;91.10;;;;;;21148380;28;20028;-51
2023/06/23 18:29:01;;;;;;;9.57;6.40;;;18.60;85.80;;;;;;21129707;28;20027;-51
2023/06/23 18:39:02;;;;;;;8.15;5.40;;;18.90;87.40;;;;;;21145530;28;20363;-51
2023/06/23 18:49:04;;;;;;;14.85;10.48;;;18.80;82.90;;;;;;21146554;28;20035;-52
2023/06/23 18:59:06;;;;;;;9.13;6.18;;;18.80;81.70;;;;;;21144875;28;20032;-53
2023/06/23 19:09:08;;;;;;;14.05;9.15;;;18.60;82.70;;;;;;21157430;27;20457;-49
2023/06/23 19:19:09;;;;;;;6.82;4.82;;;18.40;81.50;;;;;;21161425;28;20032;-50
2023/06/23 19:29:11;;;;;;;11.70;6.90;;;18.00;82.50;;;;;;21139837;28;20361;-52
2023/06/23 19:39:12;;;;;;;7.50;5.60;;;17.80;83.00;;;;;;21157266;28;20442;-51
2023/06/23 19:49:14;;;;;;;15.95;9.98;;;17.70;83.40;;;;;;21139343;28;20039;-52
2023/06/23 19:59:16;;;;;;;6.63;4.00;;;17.60;82.80;;;;;;21157189;28;20038;-50
2023/06/23 20:09:17;;;;;;;43.38;25.05;;;17.40;85.60;;;;;;21157441;28;20036;-46
2023/06/23 20:19:22;;;;;;;62.83;35.03;;;17.10;86.50;;;;;;21154992;28;20024;-50
2023/06/23 20:29:24;;;;;;;26.45;15.02;;;16.90;85.70;;;;;;21155079;28;20031;-51
2023/06/23 20:39:26;;;;;;;6.28;4.45;;;16.70;88.30;;;;;;21150441;28;20420;-49
2023/06/23 20:49:28;;;;;;;6.10;3.90;;;16.70;86.30;;;;;;21152701;28;20480;-49
2023/06/23 20:59:30;;;;;;;5.32;3.80;;;16.50;86.60;;;;;;21152217;28;20031;-51
2023/06/23 21:09:31;;;;;;;10.20;4.28;;;16.20;86.50;;;;;;21151178;28;20510;-50
2023/06/23 21:19:37;;;;;;;8.63;5.13;;;16.00;87.40;;;;;;21150362;28;20042;-53
2023/06/23 21:29:39;;;;;;;6.63;3.03;;;15.90;88.10;;;;;;21148907;28;20027;-52
2023/06/23 21:39:40;;;;;;;5.00;3.20;;;15.90;87.00;;;;;;21149990;28;20056;-52
2023/06/23 21:49:42;;;;;;;4.78;3.13;;;15.90;86.80;;;;;;21144434;28;20386;-48
2023/06/23 21:59:44;;;;;;;5.15;3.08;;;15.90;85.20;;;;;;21149024;28;20032;-47
2023/06/23 22:09:46;;;;;;;3.80;2.90;;;15.80;87.20;;;;;;21148495;28;20380;-51
2023/06/23 22:19:47;;;;;;;7.78;2.75;;;15.60;86.00;;;;;;21147184;28;20404;-51
2023/06/23 22:29:49;;;;;;;8.93;6.30;;;15.30;87.60;;;;;;21147680;28;20105;-51
2023/06/23 22:39:51;;;;;;;3.90;2.70;;;15.10;87.70;;;;;;21152211;28;20050;-50
2023/06/23 22:49:52;;;;;;;3.10;2.33;;;15.50;85.10;;;;;;21163949;28;20393;-48
2023/06/23 22:59:54;;;;;;;4.13;3.10;;;15.30;84.70;;;;;;21162863;28;20100;-46
2023/06/23 23:09:55;;;;;;;5.05;3.58;;;15.50;85.60;;;;;;21162719;28;20459;-48
2023/06/23 23:20:00;;;;;;;4.45;2.15;;;15.40;85.20;;;;;;21161360;28;20139;-51
2023/06/23 23:30:11;;;;;;;3.35;2.38;;;15.50;85.20;;;;;;21160830;28;20050;-47
2023/06/23 23:40:13;;;;;;;4.00;2.10;;;15.40;84.90;;;;;;21160134;28;20044;-47
2023/06/23 23:50:16;;;;;;;4.93;2.50;;;15.10;86.00;;;;;;21159052;28;20038;-51
